createdAt,value
2018-04-23T00:01:02.247Z,22.80
2018-04-23T00:03:28.534Z,23.00
2018-04-23T00:05:55.697Z,23.30
2018-04-23T00:08:22.009Z,23.30
2018-04-23T00:10:48.429Z,23.00
2018-04-23T00:13:16.896Z,23.10
2018-04-23T00:15:43.151Z,22.90
2018-04-23T00:18:09.404Z,22.60
2018-04-23T00:20:35.610Z,22.00
2018-04-23T00:23:01.898Z,22.80
2018-04-23T00:25:28.091Z,23.20
2018-04-23T00:27:54.599Z,23.00
2018-04-23T00:30:20.845Z,23.20
2018-04-23T00:32:47.773Z,23.60
2018-04-23T00:35:17.831Z,23.50
2018-04-23T00:37:44.028Z,23.60
2018-04-23T00:40:10.240Z,23.60
2018-04-23T00:42:37.202Z,23.60
2018-04-23T00:45:03.419Z,23.20
2018-04-23T00:47:30.079Z,23.60
2018-04-23T00:49:56.339Z,19.90
2018-04-23T00:52:23.303Z,22.60
2018-04-23T00:54:49.512Z,22.60
2018-04-23T00:57:15.755Z,20.40
2018-04-23T00:59:42.859Z,22.80
2018-04-23T01:02:09.135Z,19.90
2018-04-23T01:04:35.344Z,22.20
2018-04-23T01:07:01.580Z,22.20
2018-04-23T01:09:27.795Z,21.30
2018-04-23T01:11:54.022Z,21.50
2018-04-23T01:14:20.229Z,21.70
2018-04-23T01:16:46.419Z,21.60
2018-04-23T01:19:12.757Z,20.90
2018-04-23T01:21:38.976Z,21.20
2018-04-23T01:24:05.221Z,21.30
2018-04-23T01:26:31.422Z,21.10
2018-04-23T01:28:57.612Z,20.70
2018-04-23T01:31:23.812Z,20.40
2018-04-23T01:33:50.010Z,20.70
2018-04-23T01:36:16.229Z,20.70
2018-04-23T01:38:43.161Z,21.50
2018-04-23T01:41:09.910Z,21.50
2018-04-23T01:43:36.091Z,21.70
2018-04-23T01:46:02.298Z,21.60
2018-04-23T01:48:29.225Z,21.30
2018-04-23T01:50:55.416Z,21.30
2018-04-23T01:53:22.245Z,20.90
2018-04-23T01:55:49.147Z,20.40
2018-04-23T01:58:15.319Z,19.90
2018-04-23T02:00:41.559Z,20.20
2018-04-23T02:03:07.737Z,20.10
2018-04-23T02:05:34.987Z,20.70
2018-04-23T02:08:01.215Z,20.70
2018-04-23T02:10:27.402Z,21.00
2018-04-23T02:12:53.603Z,21.10
2018-04-23T02:15:19.856Z,20.80
2018-04-23T02:17:59.949Z,20.90
2018-04-23T02:20:26.162Z,21.30
2018-04-23T02:22:52.999Z,21.30
2018-04-23T02:25:19.963Z,21.40
2018-04-23T02:27:46.894Z,21.50
2018-04-23T02:30:13.071Z,21.30
2018-04-23T02:32:39.309Z,21.10
2018-04-23T02:35:05.553Z,20.60
2018-04-23T02:37:31.780Z,20.70
2018-04-23T02:39:58.864Z,20.60
2018-04-23T02:42:25.068Z,20.60
2018-04-23T02:44:51.290Z,20.90
2018-04-23T02:47:17.498Z,21.10
2018-04-23T02:49:43.734Z,21.20
2018-04-23T02:52:09.983Z,20.10
2018-04-23T02:54:36.222Z,18.80
2018-04-23T02:57:02.444Z,20.90
2018-04-23T02:59:28.824Z,17.90
2018-04-23T03:02:08.885Z,21.00
2018-04-23T03:04:35.108Z,20.90
2018-04-23T03:07:01.346Z,17.40
2018-04-23T03:09:27.544Z,19.10
2018-04-23T03:11:53.737Z,20.80
2018-04-23T03:14:19.994Z,21.20
2018-04-23T03:16:46.918Z,21.00
2018-04-23T03:19:13.147Z,21.00
2018-04-23T03:21:39.400Z,18.20
2018-04-23T03:24:05.594Z,21.00
2018-04-23T03:26:32.044Z,21.00
2018-04-23T03:28:58.364Z,20.80
2018-04-23T03:31:24.557Z,21.00
2018-04-23T03:33:52.821Z,20.50
2018-04-23T03:36:18.993Z,20.40
2018-04-23T03:38:45.236Z,20.40
2018-04-23T03:41:11.418Z,20.80
2018-04-23T03:43:37.610Z,20.70
2018-04-23T03:46:26.287Z,21.00
2018-04-23T03:48:52.618Z,20.80
2018-04-23T03:51:18.812Z,20.60
2018-04-23T03:53:45.004Z,20.70
2018-04-23T03:56:11.949Z,20.40
2018-04-23T03:58:38.445Z,20.30
2018-04-23T04:01:04.638Z,20.20
2018-04-23T04:03:31.580Z,20.60
2018-04-23T04:05:57.770Z,20.50
2018-04-23T04:08:23.948Z,20.50
2018-04-23T04:10:50.892Z,20.70
2018-04-23T04:13:35.515Z,20.70
2018-04-23T04:16:20.025Z,16.30
2018-04-23T04:18:56.696Z,19.50
2018-04-23T04:21:23.619Z,19.00
2018-04-23T04:23:49.808Z,18.90
2018-04-23T04:26:16.038Z,18.40
2018-04-23T04:28:42.303Z,18.50
2018-04-23T04:31:09.171Z,15.20
2018-04-23T04:33:35.444Z,18.10
2018-04-23T04:36:01.678Z,18.40
2018-04-23T04:38:27.907Z,18.30
2018-04-23T04:40:54.227Z,18.30
2018-04-23T04:43:22.412Z,17.90
2018-04-23T04:45:48.978Z,18.70
2018-04-23T04:48:15.339Z,19.10
2018-04-23T04:50:41.587Z,15.80
2018-04-23T04:53:07.946Z,19.00
2018-04-23T04:55:35.977Z,19.40
2018-04-23T04:58:03.006Z,19.00
2018-04-23T05:00:29.254Z,19.00
2018-04-23T05:02:55.477Z,18.90
2018-04-23T05:05:21.703Z,18.30
2018-04-23T05:07:51.348Z,18.50
2018-04-23T05:10:17.654Z,18.50
2018-04-23T05:12:43.940Z,18.20
2018-04-23T05:15:10.186Z,18.90
2018-04-23T05:17:37.185Z,18.00
2018-04-23T05:20:03.936Z,18.00
2018-04-23T05:22:30.225Z,18.50
2018-04-23T05:24:57.182Z,18.40
2018-04-23T05:27:23.364Z,18.40
2018-04-23T05:29:49.594Z,18.80
2018-04-23T05:32:23.338Z,18.90
2018-04-23T05:34:49.892Z,19.10
2018-04-23T05:37:16.102Z,18.80
2018-04-23T05:39:42.370Z,19.30
2018-04-23T05:42:09.345Z,19.20
2018-04-23T05:44:43.997Z,19.20
2018-04-23T05:47:10.197Z,18.60
2018-04-23T05:49:36.421Z,19.60
2018-04-23T05:52:03.391Z,20.00
2018-04-23T05:54:29.603Z,20.00
2018-04-23T05:57:00.379Z,19.50
2018-04-23T05:59:26.568Z,19.50
2018-04-23T06:01:52.860Z,19.90
2018-04-23T06:04:19.083Z,19.90
2018-04-23T06:06:45.344Z,19.50
2018-04-23T06:09:11.620Z,19.70
2018-04-23T06:11:38.558Z,19.90
2018-04-23T06:14:04.770Z,19.90
2018-04-23T06:16:30.977Z,20.10
2018-04-23T06:19:26.023Z,20.30
2018-04-23T06:21:52.318Z,20.40
2018-04-23T06:24:18.529Z,20.50
2018-04-23T06:26:44.760Z,20.50
2018-04-23T06:29:11.004Z,20.30
2018-04-23T06:36:45.655Z,20.90
2018-04-23T06:39:11.898Z,19.10
2018-04-23T06:41:38.096Z,21.30
2018-04-23T06:44:04.267Z,18.80
2018-04-23T06:46:30.467Z,18.80
2018-04-23T06:48:56.717Z,20.90
2018-04-23T06:51:22.984Z,20.50
2018-04-23T06:53:49.178Z,20.70
2018-04-23T06:56:15.360Z,20.50
2018-04-23T06:58:41.548Z,18.30
2018-04-23T07:01:07.714Z,20.70
2018-04-23T07:03:33.899Z,18.70
2018-04-23T07:08:42.143Z,20.50
2018-04-23T07:11:09.051Z,20.20
2018-04-23T07:13:35.193Z,20.10
2018-04-23T07:16:01.400Z,20.20
2018-04-23T07:18:27.665Z,20.10
2018-04-23T07:20:53.848Z,20.40
2018-04-23T07:23:20.050Z,20.40
2018-04-23T07:25:46.317Z,20.30
2018-04-23T07:28:19.382Z,20.20
2018-04-23T07:30:45.614Z,20.30
2018-04-23T07:33:12.543Z,20.00
2018-04-23T07:35:38.751Z,20.00
2018-04-23T07:38:04.969Z,17.60
2018-04-23T07:40:31.173Z,20.40
2018-04-23T07:42:57.399Z,20.30
2018-04-23T07:45:23.636Z,20.40
2018-04-23T07:47:49.849Z,20.30
2018-04-23T07:50:16.008Z,20.10
2018-04-23T07:52:42.231Z,19.80
2018-04-23T07:55:08.492Z,20.10
2018-04-23T07:57:34.724Z,20.70
2018-04-23T08:00:00.967Z,21.40
2018-04-23T08:02:27.096Z,22.10
2018-04-23T08:04:53.278Z,22.20
2018-04-23T08:07:20.222Z,23.30
2018-04-23T08:09:46.398Z,23.20
2018-04-23T08:12:12.630Z,23.30
2018-04-23T08:14:38.763Z,23.40
2018-04-23T08:17:05.850Z,23.40
2018-04-23T08:19:32.031Z,23.60
2018-04-23T08:24:51.605Z,24.50
2018-04-23T08:27:17.940Z,24.70
2018-04-23T08:29:44.880Z,24.60
2018-04-23T08:32:11.072Z,25.50
2018-04-23T08:34:37.280Z,24.60
2018-04-23T08:37:04.231Z,24.70
2018-04-23T08:39:30.422Z,24.60
2018-04-23T08:41:56.798Z,25.30
2018-04-23T08:44:23.002Z,26.00
2018-04-23T08:46:49.950Z,26.70
2018-04-23T08:49:16.159Z,26.70
2018-04-23T08:51:42.364Z,24.20
2018-04-23T08:54:08.559Z,26.50
2018-04-23T08:56:34.757Z,24.00
2018-04-23T08:59:00.960Z,26.30
2018-04-23T09:01:27.175Z,26.00
2018-04-23T09:03:53.359Z,26.20
2018-04-23T09:06:19.577Z,26.60
2018-04-23T09:08:45.798Z,24.70
2018-04-23T09:11:11.980Z,26.20
2018-04-23T09:13:38.208Z,26.20
2018-04-23T09:16:04.388Z,25.90
2018-04-23T09:18:30.571Z,25.50
2018-04-23T09:20:56.785Z,25.60
2018-04-23T09:23:23.008Z,25.70
2018-04-23T09:25:49.245Z,25.90
2018-04-23T09:28:15.449Z,25.50
2018-04-23T09:30:41.641Z,26.00
2018-04-23T09:33:07.842Z,26.50
2018-04-23T09:35:33.994Z,26.30
2018-04-23T09:38:00.174Z,26.60
2018-04-23T09:40:26.371Z,26.90
2018-04-23T09:42:52.539Z,26.70
2018-04-23T09:45:18.734Z,26.80
2018-04-23T09:47:44.955Z,26.50
2018-04-23T09:50:11.230Z,26.50
2018-04-23T09:52:37.429Z,25.90
2018-04-23T09:55:04.629Z,26.90
2018-04-23T09:57:30.821Z,26.60
2018-04-23T09:59:57.024Z,26.80
2018-04-23T10:02:24.073Z,26.60
2018-04-23T10:04:50.271Z,26.60
2018-04-23T10:07:17.170Z,26.90
2018-04-23T10:09:43.381Z,26.70
2018-04-23T10:12:09.585Z,26.90
2018-04-23T10:14:36.507Z,27.40
2018-04-23T10:17:02.724Z,27.40
2018-04-23T10:19:28.933Z,26.90
2018-04-23T10:21:55.120Z,27.00
2018-04-23T10:24:21.307Z,27.00
2018-04-23T10:26:47.501Z,26.70
2018-04-23T10:29:13.686Z,26.80
2018-04-23T10:31:39.871Z,27.00
2018-04-23T10:34:07.301Z,27.40
2018-04-23T10:36:33.565Z,27.30
2018-04-23T10:38:59.859Z,27.40
2018-04-23T10:41:26.036Z,27.50
2018-04-23T10:43:52.227Z,27.40
2018-04-23T10:46:18.450Z,27.20
2018-04-23T10:48:44.616Z,27.60
2018-04-23T10:51:10.819Z,27.80
2018-04-23T10:53:36.999Z,27.80
2018-04-23T10:56:03.235Z,25.10
2018-04-23T10:58:29.476Z,27.50
2018-04-23T11:00:55.659Z,27.50
2018-04-23T11:03:21.853Z,27.30
2018-04-23T11:05:48.092Z,27.40
2018-04-23T11:08:14.551Z,27.80
2018-04-23T11:10:40.766Z,27.80
2018-04-23T11:13:06.941Z,27.80
2018-04-23T11:15:33.127Z,28.00
2018-04-23T11:17:59.302Z,28.00
2018-04-23T11:20:25.531Z,27.70
2018-04-23T11:22:51.700Z,28.00
2018-04-23T11:25:18.658Z,28.30
2018-04-23T11:27:44.851Z,28.30
2018-04-23T11:30:11.048Z,28.20
2018-04-23T11:32:37.240Z,28.50
2018-04-23T11:35:03.430Z,28.40
2018-04-23T11:37:29.692Z,28.30
2018-04-23T11:39:55.875Z,28.70
2018-04-23T11:42:22.047Z,28.70
2018-04-23T11:44:48.213Z,28.30
2018-04-23T11:47:14.396Z,28.50
2018-04-23T11:49:40.578Z,28.80
2018-04-23T11:52:07.511Z,28.10
2018-04-23T11:54:33.675Z,28.00
2018-04-23T11:56:59.899Z,28.40
2018-04-23T11:59:26.154Z,28.80
2018-04-23T12:01:52.397Z,29.00
2018-04-23T12:04:18.631Z,28.80
2018-04-23T12:06:44.861Z,28.80
2018-04-23T12:09:11.035Z,28.70
2018-04-23T12:11:37.278Z,28.70
2018-04-23T12:14:03.507Z,28.30
2018-04-23T12:16:29.808Z,28.40
2018-04-23T12:18:56.015Z,28.50
2018-04-23T12:21:22.270Z,28.50
2018-04-23T12:23:48.495Z,28.40
2018-04-23T12:26:14.719Z,28.40
2018-04-23T12:28:40.900Z,28.30
2018-04-23T12:31:07.085Z,28.30
2018-04-23T12:33:34.030Z,28.20
2018-04-23T12:36:00.183Z,28.20
2018-04-23T12:38:26.387Z,26.80
2018-04-23T12:40:53.315Z,24.20
2018-04-23T12:43:19.509Z,24.10
2018-04-23T12:45:45.711Z,24.00
2018-04-23T12:48:12.625Z,23.50
2018-04-23T12:50:40.387Z,23.80
2018-04-23T12:53:06.674Z,23.80
2018-04-23T12:55:32.860Z,24.30
2018-04-23T12:57:59.016Z,24.30
2018-04-23T13:00:25.191Z,24.70
2018-04-23T13:02:51.360Z,24.20
2018-04-23T13:05:17.702Z,24.50
2018-04-23T13:07:43.918Z,24.10
2018-04-23T13:10:10.091Z,24.80
2018-04-23T13:12:37.225Z,24.70
2018-04-23T13:15:03.404Z,24.70
2018-04-23T13:17:29.539Z,21.30
2018-04-23T13:19:55.880Z,24.00
2018-04-23T13:22:22.083Z,23.60
2018-04-23T13:24:50.075Z,23.00
2018-04-23T13:27:16.291Z,22.20
2018-04-23T13:29:42.461Z,22.30
2018-04-23T13:32:08.650Z,22.60
2018-04-23T13:34:35.564Z,22.90
2018-04-23T13:37:01.746Z,22.80
2018-04-23T13:39:28.174Z,22.90
2018-04-23T13:41:54.350Z,22.10
2018-04-23T13:44:20.545Z,22.10
2018-04-23T13:46:46.806Z,21.40
2018-04-23T13:49:12.994Z,21.00
2018-04-23T13:51:40.630Z,20.40
2018-04-23T13:54:06.807Z,20.40
2018-04-23T13:56:32.994Z,20.10
2018-04-23T13:58:59.217Z,20.00
2018-04-23T14:01:26.745Z,20.00
2018-04-23T14:03:52.912Z,20.20
2018-04-23T14:06:19.103Z,19.70
2018-04-23T14:08:45.303Z,19.90
2018-04-23T14:11:11.640Z,20.10
2018-04-23T14:13:37.854Z,20.40
2018-04-23T14:16:04.043Z,20.60
2018-04-23T14:18:30.251Z,20.60
2018-04-23T14:20:57.891Z,21.30
2018-04-23T14:23:24.076Z,21.30
2018-04-23T14:25:50.233Z,21.20
2018-04-23T14:28:16.427Z,21.50
2018-04-23T14:30:43.354Z,21.80
2018-04-23T14:33:11.025Z,21.80
2018-04-23T14:35:37.191Z,21.80
2018-04-23T14:38:03.727Z,21.60
2018-04-23T14:40:30.643Z,21.60
2018-04-23T14:42:56.832Z,21.50
2018-04-23T14:45:23.089Z,21.50
2018-04-23T14:47:49.280Z,21.40
2018-04-23T14:50:15.472Z,21.50
2018-04-23T14:52:42.140Z,21.60
2018-04-23T14:55:08.358Z,21.60
2018-04-23T14:57:34.530Z,22.30
2018-04-23T15:00:00.812Z,22.90
2018-04-23T15:02:26.994Z,23.80
2018-04-23T15:04:53.270Z,23.20
2018-04-23T15:07:19.474Z,23.30
2018-04-23T15:09:45.662Z,22.80
2018-04-23T15:12:11.816Z,22.40
2018-04-23T15:14:37.961Z,22.10
2018-04-23T15:17:04.899Z,23.10
2018-04-23T15:19:31.115Z,23.10
2018-04-23T15:21:57.302Z,22.70
2018-04-23T15:24:23.455Z,23.20
2018-04-23T15:26:51.187Z,23.10
2018-04-23T15:29:17.401Z,23.10
2018-04-23T15:31:44.315Z,22.30
2018-04-23T15:34:11.999Z,22.20
2018-04-23T15:36:38.217Z,22.20
2018-04-23T15:39:05.403Z,20.10
2018-04-23T15:41:31.583Z,22.80
2018-04-23T15:43:57.810Z,23.00
2018-04-23T15:46:23.974Z,23.60
2018-04-23T15:48:50.167Z,23.70
2018-04-23T15:51:16.815Z,23.70
2018-04-23T15:53:43.114Z,23.90
2018-04-23T15:56:09.379Z,24.00
2018-04-23T15:58:35.536Z,23.10
2018-04-23T16:01:01.728Z,23.10
2018-04-23T16:03:27.925Z,22.40
2018-04-23T16:05:54.126Z,22.60
2018-04-23T16:08:20.296Z,22.40
2018-04-23T16:10:46.603Z,22.30
2018-04-23T16:13:12.780Z,22.30
2018-04-23T16:15:39.702Z,22.20
2018-04-23T16:18:05.926Z,22.00
2018-04-23T16:20:32.870Z,22.20
2018-04-23T16:22:59.115Z,22.20
2018-04-23T16:25:25.284Z,22.10
2018-04-23T16:27:51.519Z,21.90
2018-04-23T16:30:17.750Z,22.30
2018-04-23T16:32:44.003Z,22.60
2018-04-23T16:35:10.193Z,22.50
2018-04-23T16:37:36.462Z,22.80
2018-04-23T16:40:04.182Z,22.50
2018-04-23T16:42:30.378Z,22.50
2018-04-23T16:44:56.565Z,22.50
2018-04-23T16:47:22.746Z,22.80
2018-04-23T16:49:48.962Z,22.50
2018-04-23T16:52:15.869Z,23.00
2018-04-23T16:54:42.074Z,23.00
2018-04-23T16:57:08.231Z,23.00
2018-04-23T16:59:34.410Z,22.50
2018-04-23T17:02:00.626Z,22.10
2018-04-23T17:04:27.172Z,22.10
2018-04-23T17:06:53.468Z,22.00
2018-04-23T17:09:19.709Z,21.70
2018-04-23T17:11:48.632Z,22.20
2018-04-23T17:14:14.826Z,22.10
2018-04-23T17:16:41.122Z,22.40
2018-04-23T17:19:07.282Z,23.10
2018-04-23T17:21:33.525Z,23.70
2018-04-23T17:24:00.750Z,24.20
2018-04-23T17:26:26.970Z,24.20
2018-04-23T17:28:53.141Z,24.30
2018-04-23T17:31:19.379Z,24.70
2018-04-23T17:33:45.596Z,24.70
2018-04-23T17:36:11.802Z,24.60
2018-04-23T17:38:37.959Z,24.60
2018-04-23T17:41:04.172Z,24.40
2018-04-23T17:43:30.365Z,24.50
2018-04-23T17:45:57.309Z,24.50
2018-04-23T17:48:23.502Z,24.40
2018-04-23T17:50:49.729Z,23.80
2018-04-23T17:53:15.951Z,24.00
2018-04-23T17:55:43.686Z,23.60
2018-04-23T17:58:09.852Z,23.70
2018-04-23T18:00:36.839Z,23.40
2018-04-23T18:03:03.008Z,23.40
2018-04-23T18:05:29.169Z,23.50
2018-04-23T18:07:55.310Z,23.00
2018-04-23T18:10:21.525Z,23.10
2018-04-23T18:12:47.687Z,23.00
2018-04-23T18:15:14.198Z,22.90
2018-04-23T18:17:40.489Z,22.30
2018-04-23T18:20:07.475Z,22.50
2018-04-23T18:22:33.744Z,22.50
2018-04-23T18:24:59.906Z,22.40
2018-04-23T18:27:26.058Z,22.30
2018-04-23T18:29:52.213Z,22.30
2018-04-23T18:32:18.369Z,22.30
2018-04-23T18:34:44.793Z,22.30
2018-04-23T18:37:10.950Z,22.30
2018-04-23T18:39:37.165Z,22.20
2018-04-23T18:42:03.278Z,22.10
2018-04-23T18:44:29.483Z,21.90
2018-04-23T18:46:55.617Z,21.90
2018-04-23T18:49:21.798Z,21.90
2018-04-23T18:51:48.686Z,21.60
2018-04-23T18:54:14.946Z,21.60
2018-04-23T18:56:41.291Z,21.50
2018-04-23T18:59:07.452Z,21.50
2018-04-23T19:01:33.580Z,21.50
2018-04-23T19:03:59.799Z,21.10
2018-04-23T19:06:26.716Z,21.30
2018-04-23T19:08:52.872Z,21.30
2018-04-23T19:11:19.014Z,21.20
2018-04-23T19:13:45.208Z,21.10
2018-04-23T19:16:11.369Z,21.20
2018-04-23T19:18:37.564Z,21.10
2018-04-23T19:21:04.209Z,21.00
2018-04-23T19:23:30.385Z,21.00
2018-04-23T19:25:57.291Z,20.60
2018-04-23T19:28:23.502Z,20.60
2018-04-23T19:30:50.429Z,20.50
2018-04-23T19:33:16.587Z,20.40
2018-04-23T19:42:26.061Z,20.10
2018-04-23T19:44:52.199Z,20.10
2018-04-23T19:47:18.358Z,20.30
2018-04-23T19:49:44.511Z,20.30
2018-04-23T19:52:10.660Z,20.30
2018-04-23T19:54:36.856Z,20.40
2018-04-23T19:57:03.006Z,20.50
2018-04-23T19:59:29.199Z,20.40
2018-04-23T20:01:55.331Z,20.20
2018-04-23T20:04:21.485Z,20.20
2018-04-23T20:06:48.371Z,20.10
2018-04-23T20:09:14.567Z,20.10
2018-04-23T20:11:41.495Z,20.20
2018-04-23T20:14:07.695Z,20.10
2018-04-23T20:16:35.092Z,20.10
2018-04-23T20:19:01.261Z,20.10
2018-04-23T20:21:29.282Z,20.10
2018-04-23T20:23:55.454Z,20.00
2018-04-23T20:26:22.431Z,20.00
2018-04-23T20:28:48.656Z,20.00
2018-04-23T20:31:14.943Z,19.90
2018-04-23T20:33:41.869Z,20.00
2018-04-23T20:36:08.008Z,19.80
2018-04-23T20:38:34.983Z,20.00
2018-04-23T20:41:01.279Z,19.90
2018-04-23T20:46:20.570Z,20.00
2018-04-23T20:48:46.812Z,19.80
2018-04-23T20:51:13.050Z,19.90
2018-04-23T20:53:39.343Z,19.90
2018-04-23T20:56:06.617Z,19.90
2018-04-23T20:58:32.759Z,19.70
2018-04-23T21:00:58.935Z,19.60
2018-04-23T21:03:25.151Z,19.50
2018-04-23T21:05:51.387Z,19.50
2018-04-23T21:08:17.578Z,19.50
2018-04-23T21:10:43.765Z,19.50
2018-04-23T21:13:10.004Z,19.40
2018-04-23T21:15:36.206Z,19.30
2018-04-23T21:18:03.118Z,19.30
2018-04-23T21:20:29.288Z,19.40
2018-04-23T21:22:55.448Z,19.30
2018-04-23T21:25:21.667Z,19.40
2018-04-23T21:27:47.828Z,19.30
2018-04-23T21:30:14.003Z,19.20
2018-04-23T21:32:40.180Z,19.60
2018-04-23T21:35:06.440Z,19.60
2018-04-23T21:37:32.704Z,19.50
2018-04-23T21:39:58.811Z,19.50
2018-04-23T21:42:24.963Z,19.50
2018-04-23T21:44:51.132Z,19.40
2018-04-23T21:47:17.304Z,19.30
2018-04-23T21:49:43.575Z,19.00
2018-04-23T21:52:09.716Z,19.20
2018-04-23T21:54:35.947Z,18.90
2018-04-23T21:57:02.088Z,18.90
2018-04-23T21:59:28.281Z,18.90
2018-04-23T22:01:54.458Z,18.90
2018-04-23T22:04:20.627Z,18.90
2018-04-23T22:06:47.718Z,18.90
2018-04-23T22:09:13.906Z,18.90
2018-04-23T22:11:40.171Z,18.80
2018-04-23T22:14:06.319Z,18.20
2018-04-23T22:16:32.470Z,18.90
2018-04-23T22:18:58.657Z,18.80
2018-04-23T22:21:26.331Z,18.70
2018-04-23T22:23:52.478Z,18.60
2018-04-23T22:26:18.638Z,18.50
2018-04-23T22:28:44.794Z,18.50
2018-04-23T22:31:10.980Z,18.00
2018-04-23T22:33:37.145Z,18.60
2018-04-23T22:36:03.360Z,18.70
2018-04-23T22:38:29.542Z,18.60
2018-04-23T22:40:55.722Z,18.60
2018-04-23T22:43:21.975Z,18.60
2018-04-23T22:45:48.190Z,18.20
2018-04-23T22:48:14.354Z,18.30
2018-04-23T22:50:40.506Z,18.10
2018-04-23T22:53:06.686Z,18.40
2018-04-23T22:55:32.866Z,18.60
2018-04-23T22:57:59.030Z,18.40
2018-04-23T23:00:26.033Z,17.60
2018-04-23T23:02:52.209Z,15.10
2018-04-23T23:05:18.362Z,17.10
2018-04-23T23:07:44.538Z,16.60
2018-04-23T23:10:10.731Z,15.60
2018-04-23T23:12:36.896Z,17.00
2018-04-23T23:15:03.084Z,17.00
2018-04-23T23:17:29.251Z,15.80
2018-04-23T23:19:55.403Z,16.10
2018-04-23T23:22:21.600Z,13.00
2018-04-23T23:24:47.765Z,15.00
2018-04-23T23:27:13.953Z,15.00
2018-04-23T23:29:40.131Z,15.40
2018-04-23T23:32:07.046Z,15.10
2018-04-23T23:34:33.199Z,15.00
2018-04-23T23:36:59.360Z,15.20
2018-04-23T23:39:25.637Z,15.30
2018-04-23T23:41:51.747Z,15.00
2018-04-23T23:44:17.921Z,15.10
2018-04-23T23:46:44.102Z,12.80
2018-04-23T23:49:10.306Z,14.80
2018-04-23T23:51:36.468Z,14.70
2018-04-23T23:54:02.623Z,14.70
2018-04-23T23:56:28.783Z,14.50
2018-04-23T23:58:54.976Z,14.30
